Time;durP1;ratioP1;P1;durP2;ratioP2;P2;SDS_P1;SDS_P2;PMS_P1;PMS_P2;Temp;Humidity;BMP_temperature;BMP_pressure;BME280_temperature;BME280_humidity;BME280_pressure;Samples;Min_cycle;Max_cycle;Signal;HPM_P1;HPM_P2
2022/11/27 00:01:08;;;;;;;32.00;11.23;;;6.20;99.90;;;;;;4996113;28;20430;-86
2022/11/27 00:03:34;;;;;;;26.00;10.77;;;6.20;99.90;;;;;;4995895;28;20169;-94
2022/11/27 00:05:59;;;;;;;24.90;10.17;;;6.20;99.90;;;;;;4978802;28;20475;-88
2022/11/27 00:08:24;;;;;;;26.10;10.63;;;6.10;99.90;;;;;;4977980;28;20284;-86
2022/11/27 00:10:50;;;;;;;19.83;12.10;;;6.10;99.90;;;;;;4984438;28;20185;-95
2022/11/27 00:13:18;;;;;;;29.70;12.10;;;6.00;99.90;;;;;;4987540;28;20167;-86
2022/11/27 00:15:44;;;;;;;20.63;10.80;;;6.00;99.90;;;;;;4987840;28;20178;-96
2022/11/27 00:18:09;;;;;;;22.47;10.83;;;6.00;99.90;;;;;;5002474;28;20443;-86
2022/11/27 00:20:35;;;;;;;18.97;8.70;;;6.00;99.90;;;;;;5003968;28;20189;-87
2022/11/27 00:23:01;;;;;;;24.53;11.03;;;6.00;99.90;;;;;;4981243;28;20262;-85
2022/11/27 00:25:26;;;;;;;18.63;8.77;;;5.90;99.90;;;;;;4998564;28;20185;-86
2022/11/27 00:27:52;;;;;;;19.90;10.30;;;5.90;99.90;;;;;;4998367;28;20216;-92
2022/11/27 00:30:17;;;;;;;19.73;10.27;;;5.90;99.90;;;;;;5000980;28;20182;-92
2022/11/27 00:32:46;;;;;;;20.47;9.50;;;5.90;99.90;;;;;;4981632;28;20188;-86
2022/11/27 00:35:14;;;;;;;22.77;10.03;;;5.80;99.90;;;;;;4983453;28;20192;-86
2022/11/27 00:37:40;;;;;;;20.10;10.23;;;5.80;99.90;;;;;;4983653;28;20435;-91
2022/11/27 00:40:06;;;;;;;17.87;9.53;;;5.70;99.90;;;;;;4983045;28;20486;-91
2022/11/27 00:42:31;;;;;;;25.77;11.87;;;5.80;99.90;;;;;;4983567;28;20650;-86
2022/11/27 00:44:57;;;;;;;27.47;10.97;;;5.80;99.90;;;;;;4984299;28;20446;-87
2022/11/27 00:47:22;;;;;;;20.90;10.00;;;5.80;99.90;;;;;;4986103;28;20209;-87
2022/11/27 00:49:47;;;;;;;24.83;10.50;;;5.80;99.90;;;;;;4985515;28;20623;-88
2022/11/27 00:52:13;;;;;;;17.93;9.30;;;5.90;99.90;;;;;;4983496;28;20229;-88
2022/11/27 00:54:41;;;;;;;17.27;9.97;;;5.80;99.90;;;;;;5003727;28;20236;-94
2022/11/27 00:57:07;;;;;;;16.93;10.80;;;5.80;99.90;;;;;;5003228;28;20229;-88
2022/11/27 00:59:32;;;;;;;19.50;8.90;;;5.80;99.90;;;;;;4984068;28;20479;-91
2022/11/27 01:02:00;;;;;;;19.87;9.80;;;5.80;99.90;;;;;;4985641;28;20176;-87
2022/11/27 01:04:26;;;;;;;19.37;8.20;;;5.80;99.90;;;;;;4985207;28;20172;-90
2022/11/27 01:06:51;;;;;;;16.93;8.00;;;5.90;99.90;;;;;;5005353;28;20498;-87
2022/11/27 01:09:21;;;;;;;23.30;9.27;;;6.00;99.90;;;;;;5001285;28;20214;-87
2022/11/27 01:11:47;;;;;;;17.63;7.33;;;6.00;99.90;;;;;;5001932;28;20182;-92
2022/11/27 01:14:15;;;;;;;17.00;8.63;;;6.00;99.90;;;;;;5005506;28;20438;-90
2022/11/27 01:16:41;;;;;;;16.70;8.87;;;6.00;99.90;;;;;;5002770;28;20202;-89
2022/11/27 01:19:08;;;;;;;20.17;9.17;;;5.90;99.90;;;;;;4997422;28;20503;-88
2022/11/27 01:21:34;;;;;;;21.80;9.00;;;5.90;99.90;;;;;;4997022;28;20559;-87
2022/11/27 01:24:01;;;;;;;18.10;8.00;;;5.90;99.90;;;;;;4996799;28;20466;-89
2022/11/27 01:26:27;;;;;;;13.40;6.53;;;5.80;99.90;;;;;;4999162;28;20176;-86
2022/11/27 01:28:54;;;;;;;16.83;8.87;;;5.80;99.90;;;;;;4997335;28;20487;-89
2022/11/27 01:31:23;;;;;;;17.50;8.40;;;5.70;99.90;;;;;;4981339;28;20432;-87
2022/11/27 01:33:53;;;;;;;24.60;9.43;;;5.70;99.90;;;;;;4998523;28;20426;-87
2022/11/27 01:36:19;;;;;;;13.90;7.77;;;5.60;99.90;;;;;;5000190;28;20425;-88
2022/11/27 01:38:44;;;;;;;15.73;7.33;;;5.60;99.90;;;;;;4997486;28;20426;-95
2022/11/27 01:41:19;;;;;;;16.90;8.50;;;5.50;99.90;;;;;;4980853;28;20304;-87
2022/11/27 01:44:18;;;;;;;15.23;7.60;;;5.50;99.90;;;;;;4997824;28;20177;-95
2022/11/27 01:46:47;;;;;;;12.60;7.13;;;5.40;99.90;;;;;;4932646;28;20415;-88
2022/11/27 01:49:39;;;;;;;13.03;7.33;;;5.30;99.90;;;;;;4982539;28;20513;-86
2022/11/27 01:52:10;;;;;;;14.40;7.97;;;5.30;99.90;;;;;;4981585;28;20965;-86
2022/11/27 01:54:48;;;;;;;15.30;7.37;;;5.30;99.90;;;;;;4980639;28;20980;-95
2022/11/27 01:57:27;;;;;;;18.67;7.87;;;5.20;99.90;;;;;;4981508;28;20413;-86
2022/11/27 01:59:56;;;;;;;19.50;8.27;;;5.20;99.90;;;;;;4998995;28;20417;-87
2022/11/27 02:02:22;;;;;;;18.53;7.80;;;5.20;99.90;;;;;;4980483;28;20501;-90
2022/11/27 02:04:47;;;;;;;13.77;7.30;;;5.10;99.90;;;;;;4981034;28;20423;-93
2022/11/27 02:07:16;;;;;;;15.00;7.13;;;5.00;99.90;;;;;;4984413;28;20262;-94
2022/11/27 02:09:42;;;;;;;12.60;6.17;;;5.00;99.90;;;;;;4997250;28;20298;-89
2022/11/27 02:12:24;;;;;;;13.00;7.87;;;5.00;99.90;;;;;;4996691;28;20448;-91
2022/11/27 02:15:18;;;;;;;9.87;6.40;;;5.00;99.90;;;;;;4998136;28;20186;-89
2022/11/27 02:18:03;;;;;;;13.43;7.03;;;5.00;99.90;;;;;;4997367;28;20422;-87
2022/11/27 02:20:59;;;;;;;14.17;6.53;;;5.00;99.90;;;;;;4997871;28;20413;-95
2022/11/27 02:23:46;;;;;;;16.17;6.90;;;5.00;99.90;;;;;;4997567;28;20870;-87
2022/11/27 02:26:21;;;;;;;12.13;6.00;;;4.90;99.90;;;;;;5018407;28;20431;-88
2022/11/27 02:29:04;;;;;;;14.50;6.30;;;4.90;99.90;;;;;;5018780;28;20466;-91
2022/11/27 02:31:45;;;;;;;11.90;5.87;;;4.80;99.90;;;;;;5000851;28;20469;-89
2022/11/27 02:34:23;;;;;;;15.37;6.53;;;4.80;99.90;;;;;;5016005;28;20418;-89
2022/11/27 02:37:01;;;;;;;12.50;6.03;;;4.70;99.90;;;;;;4998832;28;20411;-90
2022/11/27 02:39:35;;;;;;;13.73;8.27;;;4.70;99.90;;;;;;5017701;28;20413;-96
2022/11/27 02:42:08;;;;;;;14.67;6.80;;;4.70;99.90;;;;;;4998893;28;20433;-89
2022/11/27 02:44:36;;;;;;;16.77;7.43;;;4.70;99.90;;;;;;5016422;28;20489;-91
2022/11/27 02:47:04;;;;;;;13.90;6.50;;;4.70;99.90;;;;;;4998734;28;20419;-92
2022/11/27 02:49:30;;;;;;;16.00;6.20;;;4.70;99.90;;;;;;4998975;28;20470;-87
2022/11/27 02:51:57;;;;;;;19.83;7.37;;;4.70;99.90;;;;;;4999058;28;20442;-88
2022/11/27 02:54:27;;;;;;;18.20;7.90;;;4.60;99.90;;;;;;4999758;28;20425;-95
2022/11/27 02:56:55;;;;;;;17.10;7.50;;;4.60;99.90;;;;;;4998844;28;20513;-89
2022/11/27 02:59:25;;;;;;;13.17;6.50;;;4.60;99.90;;;;;;5015989;28;20520;-96
2022/11/27 03:01:55;;;;;;;21.80;7.33;;;4.60;99.90;;;;;;4998305;28;20636;-96
2022/11/27 03:04:27;;;;;;;13.23;6.40;;;4.50;99.90;;;;;;4997574;28;20430;-88
2022/11/27 03:06:55;;;;;;;12.67;6.10;;;4.50;99.90;;;;;;4997473;28;20423;-91
2022/11/27 03:09:31;;;;;;;11.60;6.30;;;4.50;99.90;;;;;;4997430;28;20474;-92
2022/11/27 03:11:57;;;;;;;16.77;7.30;;;4.40;99.90;;;;;;5015069;28;20425;-87
2022/11/27 03:14:23;;;;;;;13.97;7.03;;;4.40;99.90;;;;;;5010549;28;20501;-91
2022/11/27 03:17:08;;;;;;;12.37;6.50;;;4.40;99.90;;;;;;5022212;28;20422;-95
2022/11/27 03:20:05;;;;;;;14.93;6.30;;;4.40;99.90;;;;;;5022766;28;20410;-86
2022/11/27 03:22:31;;;;;;;10.60;5.80;;;4.40;99.90;;;;;;4982455;28;20423;-92
2022/11/27 03:24:57;;;;;;;14.20;6.37;;;4.40;99.90;;;;;;5013966;28;20506;-94
2022/11/27 03:27:31;;;;;;;16.10;7.13;;;4.30;99.90;;;;;;4996578;28;20177;-88
2022/11/27 03:30:00;;;;;;;12.87;5.93;;;4.30;99.90;;;;;;4996808;28;20445;-94
2022/11/27 03:32:27;;;;;;;16.40;8.17;;;4.20;99.90;;;;;;4996893;28;20410;-95
2022/11/27 03:34:54;;;;;;;8.33;5.70;;;4.20;99.90;;;;;;5014495;28;20410;-92
2022/11/27 03:37:20;;;;;;;14.60;5.77;;;4.20;99.90;;;;;;5014304;28;20766;-94
2022/11/27 03:39:49;;;;;;;12.40;7.17;;;4.20;99.90;;;;;;4997770;28;20944;-87
2022/11/27 03:42:31;;;;;;;14.37;5.93;;;4.20;99.90;;;;;;4997462;28;20813;-89
2022/11/27 03:45:11;;;;;;;9.60;6.50;;;4.10;99.90;;;;;;4999140;28;20419;-87
2022/11/27 03:47:52;;;;;;;13.20;7.60;;;4.00;99.90;;;;;;4996751;28;20915;-95
2022/11/27 03:50:47;;;;;;;10.57;6.23;;;4.00;99.90;;;;;;4997886;28;20422;-95
2022/11/27 03:53:40;;;;;;;12.90;6.27;;;4.00;99.90;;;;;;5014089;28;20435;-93
2022/11/27 03:56:27;;;;;;;10.37;5.20;;;4.00;99.90;;;;;;4958180;28;20547;-94
2022/11/27 03:59:00;;;;;;;20.80;8.20;;;3.90;99.90;;;;;;4975385;28;20501;-92
2022/11/27 04:01:31;;;;;;;17.97;6.00;;;3.90;99.90;;;;;;4958506;28;20510;-94
2022/11/27 04:03:57;;;;;;;11.33;7.10;;;3.80;99.90;;;;;;4976593;28;20459;-89
2022/11/27 04:06:24;;;;;;;16.13;7.90;;;3.80;99.90;;;;;;4974865;28;20412;-93
2022/11/27 04:08:50;;;;;;;9.83;5.97;;;3.80;99.90;;;;;;4957336;28;20562;-93
2022/11/27 04:11:15;;;;;;;11.30;6.00;;;3.80;99.90;;;;;;4957553;28;20424;-93
2022/11/27 04:13:41;;;;;;;10.20;6.10;;;3.70;99.90;;;;;;4975614;28;20660;-85
2022/11/27 04:16:06;;;;;;;12.80;6.10;;;3.80;99.90;;;;;;5011307;28;20183;-94
2022/11/27 04:18:32;;;;;;;13.47;7.77;;;3.80;99.90;;;;;;5015974;28;20189;-94
2022/11/27 04:20:58;;;;;;;13.57;7.00;;;3.80;99.90;;;;;;4997322;28;20174;-94
2022/11/27 04:23:23;;;;;;;16.07;8.03;;;3.80;99.90;;;;;;5015429;28;20186;-91
2022/11/27 04:25:49;;;;;;;18.67;7.83;;;3.80;99.90;;;;;;5015923;28;20250;-93
2022/11/27 04:28:16;;;;;;;15.60;7.97;;;3.80;99.90;;;;;;5015688;28;20230;-95
2022/11/27 04:30:42;;;;;;;12.43;7.43;;;3.80;99.90;;;;;;5000258;28;20179;-91
2022/11/27 04:33:08;;;;;;;15.13;7.43;;;3.80;99.90;;;;;;5016839;28;20418;-94
2022/11/27 04:35:33;;;;;;;19.87;9.90;;;3.80;99.90;;;;;;5000711;28;21003;-95
2022/11/27 04:37:59;;;;;;;19.53;9.97;;;3.80;99.90;;;;;;5000504;28;20171;-96
2022/11/27 04:40:24;;;;;;;14.60;8.63;;;3.70;99.90;;;;;;5018999;28;20628;-95
2022/11/27 04:42:50;;;;;;;14.53;7.30;;;3.80;99.90;;;;;;5022374;28;20175;-93
2022/11/27 04:45:16;;;;;;;22.73;9.60;;;3.70;99.90;;;;;;5017761;28;20182;-85
2022/11/27 04:47:42;;;;;;;16.93;9.03;;;3.70;99.90;;;;;;5013260;28;20554;-96
2022/11/27 04:50:08;;;;;;;17.60;10.53;;;3.60;99.90;;;;;;4996417;28;20187;-91
2022/11/27 04:52:33;;;;;;;15.60;8.13;;;3.50;99.90;;;;;;5013514;28;20605;-86
2022/11/27 04:54:59;;;;;;;15.00;7.57;;;3.50;99.90;;;;;;4995597;28;20569;-87
2022/11/27 04:57:24;;;;;;;16.27;10.93;;;3.50;99.90;;;;;;5013674;28;20167;-86
2022/11/27 04:59:50;;;;;;;14.73;9.40;;;3.50;99.90;;;;;;4999210;28;20171;-94
2022/11/27 05:02:15;;;;;;;22.93;9.00;;;3.50;99.90;;;;;;5016995;28;20674;-87
2022/11/27 05:04:41;;;;;;;14.13;7.37;;;3.40;99.90;;;;;;5016579;28;20648;-89
2022/11/27 05:07:06;;;;;;;16.67;8.17;;;3.40;99.90;;;;;;5016534;28;20175;-88
2022/11/27 05:09:32;;;;;;;20.90;7.87;;;3.40;99.90;;;;;;4998892;28;20306;-95
2022/11/27 05:12:06;;;;;;;16.00;7.80;;;3.30;99.90;;;;;;4998668;28;20167;-87
2022/11/27 05:14:32;;;;;;;13.70;7.40;;;3.30;99.90;;;;;;5015048;28;20212;-91
2022/11/27 05:16:58;;;;;;;11.60;6.17;;;3.30;99.90;;;;;;4998080;28;20927;-95
2022/11/27 05:19:26;;;;;;;10.10;4.40;;;3.20;99.90;;;;;;5000532;28;20206;-93
2022/11/27 05:21:53;;;;;;;15.70;8.60;;;3.10;99.90;;;;;;5000476;28;20949;-94
2022/11/27 05:24:20;;;;;;;10.03;6.60;;;3.10;99.90;;;;;;5000806;28;20422;-94
2022/11/27 05:26:46;;;;;;;10.40;7.30;;;3.00;99.90;;;;;;4998818;28;20410;-93
2022/11/27 05:29:13;;;;;;;15.90;8.77;;;3.10;99.90;;;;;;5016033;28;20472;-90
2022/11/27 05:31:39;;;;;;;16.50;7.93;;;3.10;99.90;;;;;;4999660;28;20410;-90
2022/11/27 05:34:06;;;;;;;9.73;5.30;;;3.00;99.90;;;;;;5002562;28;20517;-92
2022/11/27 05:36:32;;;;;;;12.93;7.27;;;3.00;99.90;;;;;;5018574;28;20406;-91
2022/11/27 05:39:00;;;;;;;9.97;6.50;;;3.00;99.90;;;;;;5001167;28;20433;-94
2022/11/27 05:41:25;;;;;;;16.30;10.10;;;3.00;99.90;;;;;;5015801;28;20419;-89
2022/11/27 05:43:51;;;;;;;17.43;8.10;;;2.90;99.90;;;;;;5018198;28;20421;-86
2022/11/27 05:46:18;;;;;;;12.63;6.80;;;2.90;99.90;;;;;;5019326;28;20207;-95
2022/11/27 05:48:44;;;;;;;14.37;8.70;;;2.90;99.90;;;;;;5004172;28;20218;-85
2022/11/27 05:51:09;;;;;;;13.33;8.87;;;2.90;99.90;;;;;;5021281;28;20614;-91
2022/11/27 05:53:35;;;;;;;14.40;8.30;;;2.90;99.90;;;;;;5020238;28;20167;-90
2022/11/27 05:56:09;;;;;;;22.00;9.63;;;2.80;99.90;;;;;;5020691;28;20218;-87
2022/11/27 05:58:35;;;;;;;16.73;8.57;;;2.80;99.90;;;;;;5005537;28;20171;-94
2022/11/27 06:01:01;;;;;;;15.00;7.97;;;2.80;99.90;;;;;;5009124;28;20429;-88
2022/11/27 06:03:27;;;;;;;12.63;7.60;;;2.80;99.90;;;;;;5005882;28;20170;-86
2022/11/27 06:05:53;;;;;;;28.33;9.67;;;2.80;99.90;;;;;;5023831;28;20417;-87
2022/11/27 06:08:18;;;;;;;19.93;8.73;;;2.80;99.90;;;;;;5019904;28;20456;-90
2022/11/27 06:10:46;;;;;;;21.17;9.10;;;2.80;99.90;;;;;;5004110;28;20420;-91
2022/11/27 06:13:12;;;;;;;22.73;9.50;;;2.80;99.90;;;;;;5005381;28;20191;-89
2022/11/27 06:15:38;;;;;;;13.73;8.40;;;2.70;99.90;;;;;;5004804;28;20829;-92
2022/11/27 06:18:04;;;;;;;17.23;8.87;;;2.70;99.90;;;;;;5023937;28;20174;-87
2022/11/27 06:20:30;;;;;;;17.17;9.80;;;2.70;99.90;;;;;;5022489;28;20632;-87
2022/11/27 06:22:56;;;;;;;18.80;9.80;;;2.70;99.90;;;;;;5019790;28;20452;-86
2022/11/27 06:25:22;;;;;;;11.50;7.57;;;2.70;99.90;;;;;;5020328;28;20572;-87
2022/11/27 06:27:47;;;;;;;19.53;8.97;;;2.70;99.90;;;;;;5022782;28;20228;-94
2022/11/27 06:30:13;;;;;;;21.17;9.40;;;2.70;99.90;;;;;;5020374;28;20660;-89
2022/11/27 06:32:39;;;;;;;14.60;7.83;;;2.60;99.90;;;;;;5018453;28;20655;-93
2022/11/27 06:35:07;;;;;;;12.03;7.37;;;2.60;99.90;;;;;;5007725;28;20190;-88
2022/11/27 06:37:33;;;;;;;15.77;9.27;;;2.60;99.90;;;;;;4999239;28;20209;-85
2022/11/27 06:39:58;;;;;;;21.20;8.33;;;2.60;99.90;;;;;;4999717;28;20453;-85
2022/11/27 06:42:28;;;;;;;19.10;8.47;;;2.60;99.90;;;;;;4997485;28;20179;-85
2022/11/27 06:44:53;;;;;;;17.00;7.90;;;2.60;99.90;;;;;;4999019;28;20255;-86
2022/11/27 06:47:19;;;;;;;15.67;8.60;;;2.60;99.90;;;;;;4998694;28;20411;-87
2022/11/27 06:49:47;;;;;;;13.90;9.40;;;2.60;99.90;;;;;;4978527;28;20219;-85
2022/11/27 06:52:13;;;;;;;16.90;8.90;;;2.60;99.90;;;;;;4977822;28;20536;-88
2022/11/27 06:54:39;;;;;;;18.23;9.43;;;2.60;99.90;;;;;;4977911;28;20534;-91
2022/11/27 06:57:04;;;;;;;18.13;9.07;;;2.60;99.90;;;;;;4978712;28;20186;-93
2022/11/27 06:59:30;;;;;;;15.57;8.77;;;2.60;99.90;;;;;;4978275;28;20548;-92
2022/11/27 07:01:55;;;;;;;19.97;11.73;;;2.60;99.90;;;;;;4979275;28;20175;-90
2022/11/27 07:04:20;;;;;;;13.67;9.20;;;2.60;99.90;;;;;;4979085;28;20254;-86
2022/11/27 07:06:46;;;;;;;13.40;7.50;;;2.60;99.90;;;;;;4983173;28;20172;-94
2022/11/27 07:09:12;;;;;;;15.77;8.07;;;2.60;99.90;;;;;;4982329;28;20222;-86
2022/11/27 07:11:38;;;;;;;15.87;8.43;;;2.60;99.90;;;;;;4995169;28;20164;-89
2022/11/27 07:14:07;;;;;;;16.77;8.97;;;2.60;99.90;;;;;;4994037;28;20190;-87
2022/11/27 07:16:34;;;;;;;14.90;8.13;;;2.60;99.90;;;;;;4995457;28;20418;-88
2022/11/27 07:19:05;;;;;;;16.20;7.83;;;2.60;99.90;;;;;;4977934;28;20896;-87
2022/11/27 07:21:31;;;;;;;19.47;9.00;;;2.50;99.90;;;;;;4977467;28;20755;-87
2022/11/27 07:23:57;;;;;;;17.97;9.27;;;2.60;99.90;;;;;;4979157;28;20426;-94
2022/11/27 07:26:24;;;;;;;17.13;8.90;;;2.50;99.90;;;;;;4977793;28;20274;-95
2022/11/27 07:28:50;;;;;;;21.57;9.10;;;2.50;99.90;;;;;;4977397;28;20693;-95
2022/11/27 07:31:18;;;;;;;11.63;8.07;;;2.60;99.90;;;;;;5000094;28;20509;-94
2022/11/27 07:33:44;;;;;;;14.20;8.70;;;2.50;99.90;;;;;;4978975;28;20187;-95
2022/11/27 07:36:13;;;;;;;13.70;6.00;;;2.60;99.90;;;;;;4978837;28;20432;-95
2022/11/27 07:38:40;;;;;;;11.87;8.00;;;2.60;99.90;;;;;;4979658;28;20266;-95
2022/11/27 07:41:06;;;;;;;13.40;8.43;;;2.60;99.90;;;;;;4979549;28;20469;-95
2022/11/27 07:43:33;;;;;;;17.60;8.23;;;2.70;99.90;;;;;;4996231;28;20514;-95
2022/11/27 07:46:03;;;;;;;15.47;9.00;;;2.70;99.90;;;;;;4978800;28;20546;-95
2022/11/27 07:48:29;;;;;;;14.83;8.00;;;2.80;99.90;;;;;;5006158;28;20465;-95
2022/11/27 07:50:54;;;;;;;20.43;8.67;;;2.90;99.90;;;;;;5001400;28;20418;-92
2022/11/27 07:53:20;;;;;;;13.30;8.00;;;2.90;99.90;;;;;;5002223;28;20700;-93
2022/11/27 07:55:45;;;;;;;12.60;8.30;;;3.00;99.90;;;;;;5020771;28;20225;-95
2022/11/27 07:58:14;;;;;;;19.47;8.70;;;2.90;99.90;;;;;;5021579;28;20583;-93
2022/11/27 08:00:40;;;;;;;10.80;6.97;;;2.90;99.90;;;;;;5007101;28;20179;-94
2022/11/27 08:03:06;;;;;;;20.20;11.10;;;3.00;99.90;;;;;;5004008;28;20520;-95
2022/11/27 08:05:36;;;;;;;13.70;8.93;;;3.20;99.90;;;;;;5003563;28;20508;-94
2022/11/27 08:08:03;;;;;;;15.70;6.87;;;3.20;99.90;;;;;;5024420;28;20462;-90
2022/11/27 08:10:38;;;;;;;17.23;8.40;;;3.40;99.90;;;;;;5007414;28;20413;-95
2022/11/27 08:13:04;;;;;;;11.97;7.13;;;3.40;99.90;;;;;;5023525;28;20406;-95
2022/11/27 08:15:30;;;;;;;14.20;8.27;;;3.50;99.90;;;;;;5021024;28;20418;-96
2022/11/27 08:17:56;;;;;;;11.63;6.97;;;3.70;99.90;;;;;;5005060;28;20433;-96
2022/11/27 08:20:22;;;;;;;13.50;7.77;;;3.50;99.90;;;;;;5004330;28;20416;-95
2022/11/27 08:22:48;;;;;;;14.63;7.33;;;3.70;99.90;;;;;;5021041;28;20179;-96
2022/11/27 08:25:17;;;;;;;14.07;7.17;;;4.50;99.90;;;;;;5004452;28;21033;-95
2022/11/27 08:27:43;;;;;;;15.83;7.90;;;4.60;99.90;;;;;;5005164;28;20200;-96
2022/11/27 08:30:09;;;;;;;16.33;8.30;;;4.60;99.90;;;;;;5009852;28;20489;-95
2022/11/27 08:32:47;;;;;;;15.87;7.17;;;4.50;99.90;;;;;;5010000;28;20418;-94
2022/11/27 08:35:13;;;;;;;11.87;8.47;;;4.80;99.90;;;;;;4975918;28;20436;-95
2022/11/27 08:37:39;;;;;;;10.37;6.40;;;5.30;99.90;;;;;;4985642;28;20459;-86
2022/11/27 08:40:05;;;;;;;21.57;9.30;;;5.80;99.90;;;;;;4997793;28;20449;-86
2022/11/27 08:42:30;;;;;;;16.27;7.07;;;5.70;99.90;;;;;;4998079;28;20319;-84
2022/11/27 08:44:56;;;;;;;12.90;7.27;;;5.70;99.90;;;;;;4997511;28;20886;-83
2022/11/27 08:47:22;;;;;;;13.60;7.53;;;6.40;99.90;;;;;;4994201;28;20182;-84
2022/11/27 08:49:47;;;;;;;12.13;6.40;;;5.90;99.90;;;;;;4993313;28;20249;-86
2022/11/27 08:52:13;;;;;;;12.20;7.30;;;5.10;99.90;;;;;;4980381;28;20180;-85
2022/11/27 08:54:38;;;;;;;11.67;7.77;;;4.70;99.90;;;;;;4977223;28;20729;-85
2022/11/27 08:57:04;;;;;;;17.13;7.70;;;4.60;99.90;;;;;;4977431;28;20189;-84
2022/11/27 08:59:30;;;;;;;14.50;8.23;;;4.60;99.90;;;;;;4959480;28;20211;-84
2022/11/27 09:01:56;;;;;;;11.53;8.23;;;4.50;99.90;;;;;;4976970;28;20182;-83
2022/11/27 09:04:21;;;;;;;16.20;7.87;;;4.50;99.90;;;;;;4976568;28;20226;-83
2022/11/27 09:06:49;;;;;;;17.73;8.87;;;4.50;99.90;;;;;;4976156;28;20175;-85
2022/11/27 09:09:15;;;;;;;11.70;6.90;;;4.60;99.90;;;;;;4976622;28;20216;-84
2022/11/27 09:11:41;;;;;;;14.13;6.57;;;4.50;99.90;;;;;;4976500;28;20426;-86
2022/11/27 09:14:07;;;;;;;15.33;7.70;;;4.50;99.90;;;;;;4959163;28;20257;-84
2022/11/27 09:16:34;;;;;;;12.60;7.90;;;4.50;99.90;;;;;;4976416;28;20165;-84
2022/11/27 09:19:00;;;;;;;17.90;7.10;;;4.50;99.90;;;;;;4976304;28;20524;-84
2022/11/27 09:21:29;;;;;;;6.13;4.67;;;4.50;99.90;;;;;;4984633;28;20498;-83
2022/11/27 09:23:57;;;;;;;15.77;7.37;;;4.60;99.90;;;;;;4995042;28;20180;-83
2022/11/27 09:26:24;;;;;;;10.90;6.33;;;4.70;99.90;;;;;;4995653;28;20475;-84
2022/11/27 09:28:51;;;;;;;16.90;8.67;;;4.70;99.90;;;;;;4995489;28;20459;-83
2022/11/27 09:31:17;;;;;;;9.70;5.80;;;4.90;99.90;;;;;;4978011;28;20520;-83
2022/11/27 09:33:43;;;;;;;17.30;7.60;;;5.00;99.90;;;;;;4995460;28;20518;-82
2022/11/27 09:36:20;;;;;;;14.50;6.00;;;5.40;99.90;;;;;;4995168;28;20493;-85
2022/11/27 09:38:46;;;;;;;17.37;7.20;;;5.60;99.90;;;;;;4995422;28;20468;-85
2022/11/27 09:41:48;;;;;;;12.43;7.67;;;5.50;99.90;;;;;;4995397;28;20427;-85
2022/11/27 09:44:19;;;;;;;10.63;5.87;;;5.40;99.90;;;;;;4994241;28;20169;-83
2022/11/27 09:46:45;;;;;;;9.90;5.43;;;5.30;99.90;;;;;;4995370;28;20409;-84
2022/11/27 09:49:26;;;;;;;15.27;7.70;;;5.20;99.90;;;;;;4977653;28;20491;-81
2022/11/27 09:52:02;;;;;;;13.33;6.10;;;5.20;99.90;;;;;;4977288;28;20180;-84
2022/11/27 09:54:42;;;;;;;10.37;6.30;;;5.20;99.90;;;;;;4994869;28;20454;-84
2022/11/27 09:57:14;;;;;;;14.27;6.90;;;5.30;99.90;;;;;;4994122;28;20827;-83
2022/11/27 09:59:48;;;;;;;11.10;6.70;;;5.50;99.90;;;;;;4994163;28;20774;-85
2022/11/27 10:02:17;;;;;;;9.70;6.90;;;5.50;99.90;;;;;;4993999;28;20502;-83
2022/11/27 10:04:43;;;;;;;12.97;6.13;;;6.10;99.90;;;;;;4994113;28;20839;-85
2022/11/27 10:07:11;;;;;;;7.77;5.17;;;6.00;99.90;;;;;;4993155;28;21183;-84
2022/11/27 10:10:02;;;;;;;11.90;6.20;;;6.10;99.90;;;;;;4993933;28;20206;-83
2022/11/27 10:12:58;;;;;;;7.20;5.13;;;6.30;99.90;;;;;;4993309;28;20426;-83
2022/11/27 10:15:46;;;;;;;11.20;5.27;;;6.00;99.90;;;;;;4994158;28;20422;-83
2022/11/27 10:18:27;;;;;;;9.67;5.30;;;5.80;99.90;;;;;;4993304;28;20426;-82
2022/11/27 10:21:08;;;;;;;10.00;5.30;;;5.80;99.90;;;;;;4993341;28;20499;-84
2022/11/27 10:23:49;;;;;;;8.93;6.27;;;5.70;99.90;;;;;;4993300;28;20966;-83
2022/11/27 10:26:35;;;;;;;10.30;6.00;;;5.50;99.90;;;;;;4984327;28;20974;-82
2022/11/27 10:29:13;;;;;;;11.90;6.83;;;5.40;99.90;;;;;;4981556;28;20503;-83
2022/11/27 10:32:05;;;;;;;8.47;5.27;;;5.40;99.90;;;;;;4981612;28;20749;-82
2022/11/27 10:34:38;;;;;;;16.90;6.13;;;5.40;99.90;;;;;;4972524;28;20420;-81
2022/11/27 10:37:22;;;;;;;8.10;3.67;;;5.40;99.90;;;;;;4964237;28;20513;-82
2022/11/27 10:39:57;;;;;;;10.53;6.30;;;5.40;99.90;;;;;;4983299;28;20415;-82
2022/11/27 10:42:34;;;;;;;13.83;6.50;;;5.60;99.90;;;;;;4985257;28;20420;-82
2022/11/27 10:45:20;;;;;;;7.63;5.07;;;5.40;99.90;;;;;;4976919;28;20438;-82
2022/11/27 10:47:47;;;;;;;14.10;7.07;;;5.40;99.90;;;;;;4985850;28;20486;-83
2022/11/27 10:50:14;;;;;;;8.93;5.93;;;6.00;99.90;;;;;;4988137;28;21004;-82
2022/11/27 10:52:56;;;;;;;9.53;6.10;;;6.40;99.90;;;;;;4981689;28;20436;-82
2022/11/27 10:55:57;;;;;;;14.23;7.00;;;6.50;99.90;;;;;;4946756;28;1016848;-82
2022/11/27 10:58:33;;;;;;;10.93;6.13;;;6.40;99.90;;;;;;4984664;28;20268;-83
2022/11/27 11:01:06;;;;;;;8.50;4.70;;;6.10;99.90;;;;;;4967725;28;20433;-83
2022/11/27 11:03:32;;;;;;;9.30;5.07;;;6.10;99.90;;;;;;4983854;28;20929;-82
2022/11/27 11:06:01;;;;;;;6.23;4.40;;;6.10;99.90;;;;;;4965083;28;20430;-82
2022/11/27 11:08:28;;;;;;;11.57;5.47;;;6.10;99.90;;;;;;4965632;28;20882;-82
2022/11/27 11:10:59;;;;;;;10.47;7.07;;;6.10;99.90;;;;;;4983205;28;20753;-82
2022/11/27 11:13:29;;;;;;;19.93;8.43;;;6.20;99.90;;;;;;4982030;28;20499;-83
2022/11/27 11:16:00;;;;;;;18.13;9.10;;;6.30;99.90;;;;;;4974287;28;20404;-84
2022/11/27 11:18:28;;;;;;;18.00;8.20;;;6.20;99.90;;;;;;4974245;28;20414;-82
2022/11/27 11:20:59;;;;;;;12.10;6.37;;;6.30;99.90;;;;;;4975269;28;20406;-84
2022/11/27 11:23:34;;;;;;;9.73;4.73;;;6.20;99.90;;;;;;5013140;28;20456;-82
2022/11/27 11:26:04;;;;;;;5.40;4.03;;;6.10;99.90;;;;;;5013352;28;20423;-83
2022/11/27 11:28:31;;;;;;;5.77;4.33;;;6.10;99.90;;;;;;5013025;28;20474;-83
2022/11/27 11:31:11;;;;;;;7.33;4.70;;;6.00;99.90;;;;;;5013003;28;20419;-82
2022/11/27 11:33:49;;;;;;;11.67;5.50;;;6.10;99.90;;;;;;5013215;28;20418;-83
2022/11/27 11:36:15;;;;;;;8.40;5.23;;;6.00;99.90;;;;;;5012606;28;20798;-82
2022/11/27 11:38:44;;;;;;;8.10;6.50;;;6.10;99.90;;;;;;5012922;28;20496;-83
2022/11/27 11:41:11;;;;;;;10.83;5.40;;;6.10;99.90;;;;;;5012910;28;20180;-83
2022/11/27 11:43:37;;;;;;;10.17;6.20;;;6.20;99.90;;;;;;5013453;28;20842;-83
2022/11/27 11:46:29;;;;;;;10.80;6.70;;;6.10;99.90;;;;;;5012031;28;20509;-83
2022/11/27 11:49:15;;;;;;;8.37;6.83;;;6.10;99.90;;;;;;4967490;28;20300;-83
2022/11/27 11:52:13;;;;;;;13.97;5.90;;;6.10;99.90;;;;;;4993082;28;20421;-83
2022/11/27 11:54:49;;;;;;;10.43;6.57;;;6.20;99.90;;;;;;4989315;28;20467;-82
2022/11/27 11:57:45;;;;;;;7.90;5.50;;;6.10;99.90;;;;;;4993399;28;20416;-83
2022/11/27 12:00:15;;;;;;;11.07;4.47;;;6.20;99.90;;;;;;4973757;28;20870;-83
2022/11/27 12:03:03;;;;;;;7.00;5.40;;;6.20;99.90;;;;;;4973788;28;20926;-83
2022/11/27 12:05:47;;;;;;;9.57;6.77;;;6.10;99.90;;;;;;4973617;28;20489;-83
2022/11/27 12:09:01;;;;;;;6.93;5.70;;;6.10;99.90;;;;;;4976021;28;21039;-83
2022/11/27 12:11:29;;;;;;;7.83;4.67;;;6.10;99.90;;;;;;4892801;28;20504;-84
2022/11/27 12:14:22;;;;;;;8.50;5.23;;;6.10;99.90;;;;;;4977669;28;20420;-82
2022/11/27 12:17:13;;;;;;;8.73;5.23;;;6.10;99.90;;;;;;4977820;28;20833;-82
2022/11/27 12:20:04;;;;;;;5.30;4.13;;;6.20;99.90;;;;;;4977659;28;20453;-83
2022/11/27 12:23:01;;;;;;;11.50;6.73;;;6.20;99.90;;;;;;4977402;28;20479;-84
2022/11/27 12:25:34;;;;;;;8.97;4.70;;;6.20;99.90;;;;;;4960213;28;20418;-83
2022/11/27 12:28:35;;;;;;;7.97;4.47;;;6.20;99.90;;;;;;4960178;28;20925;-81
2022/11/27 12:31:19;;;;;;;12.77;6.00;;;6.20;99.90;;;;;;4977431;28;20456;-85
2022/11/27 12:34:05;;;;;;;9.43;5.43;;;6.30;99.90;;;;;;4977481;28;20516;-83
2022/11/27 12:36:31;;;;;;;10.90;8.10;;;6.30;99.90;;;;;;4976949;28;20545;-83
2022/11/27 12:39:14;;;;;;;12.10;7.37;;;6.40;99.90;;;;;;4977358;28;20983;-83
2022/11/27 12:41:46;;;;;;;14.33;5.33;;;6.40;99.90;;;;;;4977226;28;20546;-83
2022/11/27 12:44:34;;;;;;;9.80;6.30;;;6.30;99.90;;;;;;4977209;28;20424;-83
2022/11/27 12:47:14;;;;;;;11.00;6.43;;;6.40;99.90;;;;;;4977237;28;20444;-83
2022/11/27 12:49:45;;;;;;;8.20;5.47;;;6.40;99.90;;;;;;4976878;28;20496;-85
2022/11/27 12:52:17;;;;;;;12.93;5.10;;;6.40;99.90;;;;;;4976589;28;20907;-83
2022/11/27 12:55:03;;;;;;;12.47;5.63;;;6.40;99.90;;;;;;4999412;28;20892;-84
2022/11/27 12:58:00;;;;;;;9.43;6.17;;;6.40;99.90;;;;;;4996522;28;20411;-85
2022/11/27 13:00:29;;;;;;;7.70;4.00;;;6.50;99.90;;;;;;4995428;28;20420;-86
2022/11/27 13:03:05;;;;;;;9.50;5.70;;;6.40;99.90;;;;;;4978960;28;20419;-84
2022/11/27 13:05:43;;;;;;;5.40;4.37;;;6.40;99.90;;;;;;4996216;28;20520;-84
2022/11/27 13:08:25;;;;;;;8.43;4.60;;;6.40;99.90;;;;;;4996174;28;20483;-83